ADDS METAR Data INFO
IDs: Format: Raw Decoded Include TAF

Data at: 0255 UTC 21 Jan 2018

KFGX 210235Z AUTO 24005KT 10SM SCT013 SCT018 OVC029 07/05 A3016 RMK AO2 T00650049
KFGX 210215Z AUTO 21007KT 10SM BKN013 BKN018 OVC027 07/05 A3016 RMK AO2 T00670045
KFGX 210155Z AUTO 21007KT 10SM OVC013 07/04 A3016 RMK AO2 T00660037
KFGX 210135Z AUTO 21007KT 10SM OVC015 07/03 A3016 RMK AO2 T00650030
KFGX 210115Z AUTO 20008KT 10SM OVC017 07/03 A3015 RMK AO2 T00650027
KFGX 210055Z AUTO 21006KT 10SM OVC017 06/03 A3015 RMK AO2 T00640026
KFGX 210035Z AUTO 20007KT 10SM OVC019 07/03 A3015 RMK AO2 T00660027
KFGX 210015Z AUTO 21006KT 10SM OVC019 06/03 A3015 RMK AO2 T00640026
KFGX 202355Z AUTO 21006KT 10SM OVC019 06/02 A3015 RMK AO2 T00610022 10085 20056
KFGX 202335Z AUTO 21007KT 10SM OVC021 06/02 A3015 RMK AO2 T00610020
KFGX 202315Z AUTO 21006KT 10SM BKN021 OVC027 06/02 A3015 RMK AO2 T00610017
KFGX 202255Z AUTO 22006KT 10SM BKN023 BKN035 OVC043 06/02 A3015 RMK AO2 T00600017
KFGX 202235Z AUTO 23007KT 10SM SCT025 BKN035 OVC043 06/02 A3015 RMK AO2 T00610015
KFGX 202215Z AUTO 23007KT 10SM SCT029 OVC039 07/02 A3015 RMK AO2 T00650015
KFGX 202155Z AUTO 24008KT 10SM OVC029 07/02 A3014 RMK AO2 T00690015
KFGX 202135Z AUTO 22008KT 10SM BKN029 OVC055 08/02 A3013 RMK AO2 T00810015
KFGX 202115Z AUTO 20005KT 10SM SCT055 08/01 A3012 RMK AO2 T00820014
KFGX 202055Z AUTO 21004KT 10SM SCT034 SCT050 08/01 A3012 RMK AO2 T00810010
KFGX 202035Z AUTO 21006KT 10SM BKN034 08/01 A3012 RMK AO2 T00780005
KFGX 202015Z AUTO 21006KT 10SM OVC032 08/00 A3012 RMK AO2 T00770002
KFGX 201955Z AUTO 23005KT 10SM BKN026 OVC032 08/00 A3012 RMK AO2 T00770000
KFGX 201935Z AUTO 23006KT 10SM OVC028 08/00 A3012 RMK AO2 T00750000
KFGX 201915Z AUTO 24008KT 10SM OVC028 07/00 A3012 RMK AO2 T00741001
KFGX 201855Z AUTO 24008KT 10SM OVC028 07/M01 A3012 RMK AO2 T00721006
KFGX 201835Z AUTO 24011KT 10SM BKN028 08/M01 A3012 RMK AO2 T00761008
KFGX 201815Z AUTO 24014G18KT 10SM CLR 07/M01 A3013 RMK AO2 T00741013
KFGX 201755Z AUTO 24011G17KT 10SM CLR 07/M01 A3013 RMK AO2 T00701015 10072 20018
KFGX 201735Z AUTO 24010KT 10SM CLR 07/M02 A3013 RMK AO2 T00701017
KFGX 201715Z AUTO 24011G17KT 10SM CLR 07/M02 A3013 RMK AO2 T00711019
KFGX 201655Z AUTO 24012G16KT 10SM CLR 07/M02 A3015 RMK AO2 T00701020
KFGX 201635Z AUTO 23012G17KT 10SM CLR 07/M02 A3015 RMK AO2 T00681024
KFGX 201615Z AUTO 23010KT 10SM CLR 07/M03 A3016 RMK AO2 T00661026
KFGX 201555Z AUTO 24011KT 10SM CLR 06/M03 A3016 RMK AO2 T00621029
KFGX 201535Z AUTO 23011KT 10SM CLR 06/M03 A3017 RMK AO2 T00591026
KFGX 201515Z AUTO 23013G19KT 10SM CLR 06/M03 A3016 RMK AO2 T00561027
KFGX 201455Z AUTO 24012G17KT 10SM CLR 05/M03 A3016 RMK AO2 T00521030
KFGX 201435Z AUTO 23012G16KT 10SM CLR 05/M03 A3015 RMK AO2 T00481029
KFGX 201415Z AUTO 23010KT 10SM CLR 04/M03 A3015 RMK AO2 T00421026
KFGX 201355Z AUTO 22009KT 10SM CLR 03/M03 A3015 RMK AO2 T00341027
KFGX 201335Z AUTO 21007KT 10SM CLR 03/M03 A3014 RMK AO2 T00271027
KFGX 201315Z AUTO 21007KT 10SM CLR 02/M03 A3014 RMK AO2 T00221027
KFGX 201255Z AUTO 21007KT 10SM CLR 02/M03 A3014 RMK AO2 T00211028
KFGX 201235Z AUTO 22007KT 10SM CLR 02/M03 A3013 RMK AO2 T00201030
KFGX 201215Z AUTO 22007KT 10SM CLR 02/M03 A3014 RMK AO2 T00201031
KFGX 201155Z AUTO 22007KT 10SM CLR 02/M03 A3012 RMK AO2 T00211031 10031 20005
KFGX 201135Z AUTO 23007KT 10SM CLR 02/M03 A3012 RMK AO2 T00171030
KFGX 201115Z AUTO 23007KT 10SM CLR 02/M03 A3012 RMK AO2 T00191027
KFGX 201055Z AUTO 23009KT 10SM CLR 02/M02 A3012 RMK AO2 T00241021
KFGX 201035Z AUTO 23010KT 10SM CLR 03/M02 A3010 RMK AO2 T00291020
KFGX 201015Z AUTO 22009G14KT 10SM CLR 03/M02 A3010 RMK AO2 T00291020
KFGX 200955Z AUTO 22009G14KT 10SM CLR 03/M02 A3010 RMK AO2 T00291022
KFGX 200935Z AUTO 22011KT 10SM CLR 03/M02 A3009 RMK AO2 T00291025
KFGX 200915Z AUTO 22011G16KT 10SM CLR 03/M02 A3009 RMK AO2 T00301025
KFGX 200855Z AUTO 22012G16KT 10SM CLR 03/M03 A3008 RMK AO2 T00281028
KFGX 200835Z AUTO 22012G17KT 10SM SCT027 03/M03 A3009 RMK AO2 T00271033
KFGX 200815Z AUTO 22014G21KT 10SM BKN027 03/M04 A3009 RMK AO2 T00311036
KFGX 200755Z AUTO 22011G16KT 10SM BKN027 03/M04 A3009 RMK AO2 T00281039
KFGX 200735Z AUTO 22013G17KT 10SM BKN026 02/M04 A3009 RMK AO2 T00231045
KFGX 200715Z AUTO 21010KT 10SM SCT026 01/M05 A3008 RMK AO2 T00131055
KFGX 200655Z AUTO 21010KT 10SM CLR 01/M06 A3008 RMK AO2 T00091063
KFGX 200635Z AUTO 20010KT 10SM CLR 01/M06 A3008 RMK AO2 T00061065
KFGX 200615Z AUTO 20009KT 10SM CLR 01/M07 A3008 RMK AO2 T00061068
KFGX 200555Z AUTO 20010KT 10SM SCT028 01/M07 A3008 RMK AO2 T00071067 10013 20000 400331084
KFGX 200535Z AUTO 20010KT 10SM SCT029 01/M07 A3008 RMK AO2 T00101066
KFGX 200515Z AUTO 20010KT 10SM CLR 01/M07 A3008 RMK AO2 T00111067
KFGX 200455Z AUTO 20011KT 10SM CLR 01/M07 A3008 RMK AO2 T00111070
KFGX 200435Z AUTO 21010KT 10SM CLR 01/M07 A3009 RMK AO2 T00121072
KFGX 200415Z AUTO 21010KT 10SM CLR 01/M08 A3009 RMK AO2 T00051078
KFGX 200355Z AUTO 21007KT 10SM CLR 00/M08 A3010 RMK AO2 T00011081
KFGX 200335Z AUTO 21009KT 10SM SCT026 00/M08 A3009 RMK AO2 T00031084
KFGX 200315Z AUTO 21010KT 10SM BKN026 00/M08 A3010 RMK AO2 T00021082
KFGX 200255Z AUTO 21008KT 10SM SCT026 00/M08 A3010 RMK AO2 T00001085
KFGX 200235Z AUTO 21007KT 10SM CLR 00/M08 A3010 RMK AO2 T00001085
KFGX 200215Z AUTO 22008KT 10SM CLR 00/M08 A3010 RMK AO2 T00001084
KFGX 200155Z AUTO 21008KT 10SM CLR 00/M08 A3010 RMK AO2 T00001081
KFGX 200135Z AUTO 22007KT 10SM CLR 00/M08 A3011 RMK AO2 T00011080
KFGX 200115Z AUTO 22008KT 10SM CLR 00/M08 A3011 RMK AO2 T00041077
KFGX 200055Z AUTO 21010KT 10SM CLR 01/M08 A3011 RMK AO2 T00051076
KFGX 200035Z AUTO 20010KT 10SM CLR 01/M07 A3010 RMK AO2 T00061075
KFGX 200015Z AUTO 21009KT 10SM CLR 01/M07 A3010 RMK AO2 T00051074
KFGX 192355Z AUTO 21009KT 10SM CLR 01/M07 A3010 RMK AO2 T00051072 10033 20004
KFGX 192335Z AUTO 20008KT 10SM CLR 01/M07 A3011 RMK AO2 T00061070
KFGX 192315Z AUTO 21009KT 10SM CLR 01/M07 A3011 RMK AO2 T00081069
KFGX 192255Z AUTO 21007KT 10SM CLR 01/M07 A3011 RMK AO2 T00071070
KFGX 192235Z AUTO 21005KT 10SM CLR 01/M07 A3011 RMK AO2 T00111071
KFGX 192215Z AUTO 21007KT 10SM CLR 02/M07 A3011 RMK AO2 T00181072
KFGX 192155Z AUTO 22008KT 10SM CLR 03/M07 A3012 RMK AO2 T00251074
KFGX 192135Z AUTO 22005KT 10SM CLR 03/M07 A3013 RMK AO2 T00281074
KFGX 192115Z AUTO 22007KT 10SM CLR 03/M07 A3013 RMK AO2 T00311075
KFGX 192055Z AUTO 22007KT 10SM CLR 03/M08 A3013 RMK AO2 T00331077
KFGX 192035Z AUTO 22007G14KT 10SM CLR 03/M07 A3012 RMK AO2 T00301074
KFGX 192015Z AUTO 22009KT 10SM CLR 03/M08 A3012 RMK AO2 T00311080
KFGX 191955Z AUTO 22009KT 10SM CLR 03/M08 A3013 RMK AO2 T00301077
KFGX 191935Z AUTO 21006KT 10SM CLR 03/M08 A3014 RMK AO2 T00261078
KFGX 191915Z AUTO 20008KT 10SM CLR 03/M08 A3014 RMK AO2 T00251082
KFGX 191855Z AUTO 22010G14KT 10SM CLR 02/M08 A3015 RMK AO2 T00201082
KFGX 191835Z AUTO 21010KT 10SM CLR 02/M08 A3015 RMK AO2 T00151082
KFGX 191815Z AUTO 21010KT 10SM CLR 01/M08 A3016 RMK AO2 T00121080
KFGX 191755Z AUTO 21009KT 10SM CLR 01/M08 A3016 RMK AO2 T00071083 10008 21068
KFGX 191735Z AUTO 21012G15KT 10SM CLR 01/M09 A3018 RMK AO2 T00051086
KFGX 191715Z AUTO 21010G15KT 10SM CLR 00/M09 A3019 RMK AO2 T00041087
KFGX 191655Z AUTO 22010G16KT 10SM CLR 00/M09 A3020 RMK AO2 T00011088
KFGX 191635Z AUTO 23010KT 10SM CLR 00/M08 A3022 RMK AO2 T00001085
KFGX 191615Z AUTO 23010G14KT 10SM CLR 00/M09 A3023 RMK AO2 T10051086
KFGX 191555Z AUTO 23008G14KT 10SM CLR M01/M09 A3023 RMK AO2 T10101095
KFGX 191535Z AUTO 22006KT 10SM CLR M02/M10 A3024 RMK AO2 T10181097
KFGX 191515Z AUTO 21006KT 10SM CLR M03/M10 A3024 RMK AO2 T10281101